METAR AND TAF INFORMATION
METAR FOR LGBL
ADDS - METARS form results

(0808 UTC 16 October 2019)
Data provider http://aviationweather.gov/metar/data/
 
METAR text: LGBL 160750Z 35004KT 9999 FEW030 22/13 Q1018
Conditions at: LGBL (NEA ANCHIALOS , GR) observed 0750 UTC 16 October 2019
Temperature: 22.0°C (72°F)
Dewpoint: 13.0°C (55°F) [RH = 57%]
Pressure (altimeter): 30.06 inches Hg (1018.0 mb)
Winds: from the N (350 degrees) at 5 MPH (4 knots; 2.1 m/s)
Visibility: 6 or more miles (10+ km)
Ceiling: at least 12,000 feet AGL
Clouds: few clouds at 3000 feet AGL
Weather: no significant weather observed at this time

METAR text: LGBL 160720Z 32006KT 9999 FEW030 21/14 Q1018
Conditions at: LGBL (NEA ANCHIALOS , GR) observed 0720 UTC 16 October 2019
Temperature: 21.0°C (70°F)
Dewpoint: 14.0°C (57°F) [RH = 64%]
Pressure (altimeter): 30.06 inches Hg (1018.0 mb)
Winds: from the NW (320 degrees) at 7 MPH (6 knots; 3.1 m/s)
Visibility: 6 or more miles (10+ km)
Ceiling: at least 12,000 feet AGL
Clouds: few clouds at 3000 feet AGL
Weather: no significant weather observed at this time

Forecast for: LGBL (NEA ANCHIALOS , GR)
Text: TAF LGBL 160800Z 1609/1618 10008KT 9999 FEW025
Forecast period: 0900 to 1800 UTC 16 October 2019
Forecast type: FROM: standard forecast or significant change
Winds: from the E (100 degrees) at 9 MPH (8 knots; 4.1 m/s)
Visibility: 6 or more miles 10+ km)
Ceiling: at least 12,000 feet AGL
Clouds: few clouds at 2500 feet AGL
Weather: no significant weather forecast for this period

 ΧΑΡΤΗΣ ΑΕΡΟΔΡΟΜΙΟΥ

 RUNWAY INFORMATION
Διάδρομος 08 Runway length 9052 ft Runway width 148 ft
Runway elevation 83 ft Runway displaced threshold 0 ft Runway heading 81
Διάδρομος 26 Runway length 9052 ft Runway width 148 ft
Runway elevation 19 ft Runway displaced threshold 0 ft Runway heading 261

 ΣΥΧΝΟΤΗΤΕΣ ΑΕΡΟΔΡΟΜΙΟΥ
Τύπος APP Όνομα ALMIROS AP Συχνότητα 120.35 MHZ
Τύπος TWR Όνομα ALMIROS TW Συχνότητα 122.1 MHZ

 AIRPORT NEAR NAVIGATION AIDS
Τύπος VOR-DME Όνομα Anchialos Συχνότητα 110400 KHZ
Τύπος TACAN Όνομα Nea Anchialos Συχνότητα 115600 KHZ
Τύπος NDB Όνομα Nea Anchialos Συχνότητα 335 KHZ



Hellenic Air Force Virtual - All rights reserved 2019 - Powered by VAM